BAW433 EHAM-EGLL
Flight info
| Callsign | BAW433 |
|---|---|
| Flight time | N/A |
| Altitude | 24000 |
| Route | IDRID L980 LOGAN |
| Aircraft | A320/M-SDE3FGHIRWY/LB1 |
Departure
| Time | 2026-04-27 12:50 |
|---|---|
| Airport | Amsterdam Airport Schiphol (EHAM) |
Arrival
| Time | N/A |
|---|---|
| Airport | London Heathrow Airport (EGLL) |
| Time | Latitude | Longitude | Altitude | Speed | Heading |
|---|---|---|---|---|---|
| 2026-04-27 12:06 | 52.30712 | 4.77090 | -1 ft | 0 kts | 3° |
| 2026-04-27 12:26 | 52.30701 | 4.77088 | -1 ft | 4 kts | 7° |
| 2026-04-27 12:26 | 52.30675 | 4.77079 | -1 ft | 4 kts | 25° |
| 2026-04-27 12:27 | 52.30655 | 4.77055 | -1 ft | 4 kts | 68° |
| 2026-04-27 12:27 | 52.30652 | 4.77034 | -1 ft | 1 kts | 93° |
| 2026-04-27 12:27 | 52.30652 | 4.77031 | -1 ft | 0 kts | 93° |
| 2026-04-27 12:33 | 52.30651 | 4.77051 | -1 ft | 8 kts | 94° |
| 2026-04-27 12:34 | 52.30647 | 4.77168 | -1 ft | 18 kts | 93° |
| 2026-04-27 12:34 | 52.30641 | 4.77372 | -1 ft | 9 kts | 92° |
| 2026-04-27 12:34 | 52.30640 | 4.77446 | -1 ft | 6 kts | 89° |
| 2026-04-27 12:34 | 52.30647 | 4.77530 | -1 ft | 9 kts | 72° |
| 2026-04-27 12:35 | 52.30701 | 4.77591 | -1 ft | 12 kts | 8° |
| 2026-04-27 12:35 | 52.30791 | 4.77601 | -1 ft | 14 kts | 4° |
| 2026-04-27 12:35 | 52.30901 | 4.77611 | -1 ft | 17 kts | 3° |
| 2026-04-27 12:35 | 52.31029 | 4.77623 | -1 ft | 20 kts | 3° |
| 2026-04-27 12:36 | 52.31174 | 4.77634 | -1 ft | 22 kts | 3° |
| 2026-04-27 12:36 | 52.31335 | 4.77649 | -1 ft | 24 kts | 4° |
| 2026-04-27 12:36 | 52.31498 | 4.77583 | -1 ft | 26 kts | 317° |
| 2026-04-27 12:36 | 52.31575 | 4.77319 | -1 ft | 28 kts | 268° |
| 2026-04-27 12:37 | 52.31565 | 4.77015 | -1 ft | 21 kts | 266° |
| 2026-04-27 12:37 | 52.31556 | 4.76772 | -1 ft | 21 kts | 267° |
| 2026-04-27 12:37 | 52.31548 | 4.76515 | -1 ft | 24 kts | 267° |
| 2026-04-27 12:37 | 52.31539 | 4.76230 | -1 ft | 26 kts | 266° |
| 2026-04-27 12:38 | 52.31528 | 4.75921 | -1 ft | 29 kts | 266° |
| 2026-04-27 12:38 | 52.31517 | 4.75650 | -1 ft | 22 kts | 267° |
| 2026-04-27 12:38 | 52.31509 | 4.75390 | -1 ft | 23 kts | 267° |
| 2026-04-27 12:38 | 52.31500 | 4.75121 | -1 ft | 24 kts | 266° |
| 2026-04-27 12:39 | 52.31491 | 4.74837 | -1 ft | 24 kts | 266° |
| 2026-04-27 12:39 | 52.31483 | 4.74623 | -1 ft | 16 kts | 266° |
| 2026-04-27 12:39 | 52.31476 | 4.74466 | -1 ft | 12 kts | 265° |
| 2026-04-27 12:39 | 52.31474 | 4.74370 | -1 ft | 8 kts | 278° |
| 2026-04-27 12:40 | 52.31512 | 4.74300 | -1 ft | 10 kts | 341° |
| 2026-04-27 12:40 | 52.31590 | 4.74301 | -1 ft | 13 kts | 3° |
| 2026-04-27 12:40 | 52.31687 | 4.74310 | -1 ft | 15 kts | 3° |
| 2026-04-27 12:40 | 52.31804 | 4.74321 | -1 ft | 18 kts | 4° |
| 2026-04-27 12:41 | 52.31907 | 4.74331 | -1 ft | 13 kts | 3° |
| 2026-04-27 12:41 | 52.31989 | 4.74330 | -1 ft | 12 kts | 347° |
| 2026-04-27 12:41 | 52.32031 | 4.74213 | -1 ft | 14 kts | 270° |
| 2026-04-27 12:41 | 52.32036 | 4.74036 | -2 ft | 17 kts | 273° |
| 2026-04-27 12:42 | 52.32043 | 4.73828 | -1 ft | 19 kts | 274° |
| 2026-04-27 12:42 | 52.32051 | 4.73611 | -1 ft | 17 kts | 272° |
| 2026-04-27 12:42 | 52.32067 | 4.73413 | -1 ft | 15 kts | 292° |
| 2026-04-27 12:42 | 52.32118 | 4.73314 | -1 ft | 11 kts | 319° |
| 2026-04-27 12:43 | 52.32183 | 4.73224 | -1 ft | 14 kts | 319° |
| 2026-04-27 12:43 | 52.32258 | 4.73117 | -1 ft | 11 kts | 318° |
| 2026-04-27 12:43 | 52.32313 | 4.73038 | -1 ft | 11 kts | 319° |
| 2026-04-27 12:43 | 52.32378 | 4.72945 | -1 ft | 14 kts | 319° |
| 2026-04-27 12:44 | 52.32458 | 4.72834 | -1 ft | 16 kts | 320° |
| 2026-04-27 12:44 | 52.32542 | 4.72720 | -1 ft | 17 kts | 320° |
| 2026-04-27 12:44 | 52.32637 | 4.72583 | -1 ft | 20 kts | 317° |
| 2026-04-27 12:44 | 52.32738 | 4.72413 | -1 ft | 22 kts | 311° |
| 2026-04-27 12:45 | 52.32840 | 4.72222 | -1 ft | 21 kts | 311° |
| 2026-04-27 12:45 | 52.32929 | 4.72056 | -1 ft | 14 kts | 311° |
| 2026-04-27 12:45 | 52.32999 | 4.71925 | -1 ft | 17 kts | 311° |
| 2026-04-27 12:45 | 52.33082 | 4.71772 | -1 ft | 18 kts | 311° |
| 2026-04-27 12:46 | 52.33140 | 4.71653 | -1 ft | 12 kts | 296° |
| 2026-04-27 12:46 | 52.33135 | 4.71515 | -1 ft | 12 kts | 239° |
| 2026-04-27 12:46 | 52.33069 | 4.71409 | -1 ft | 14 kts | 222° |
| 2026-04-27 12:46 | 52.32992 | 4.71300 | -1 ft | 13 kts | 221° |
| 2026-04-27 12:47 | 52.32938 | 4.71222 | -1 ft | 10 kts | 221° |
| 2026-04-27 12:47 | 52.32896 | 4.71162 | -1 ft | 0 kts | 221° |
| 2026-04-27 12:47 | 52.32887 | 4.71149 | -1 ft | 3 kts | 221° |
| 2026-04-27 12:47 | 52.32867 | 4.71107 | -1 ft | 6 kts | 244° |
| 2026-04-27 12:48 | 52.32863 | 4.71085 | -1 ft | 0 kts | 253° |
| 2026-04-27 12:48 | 52.32859 | 4.71037 | -2 ft | 10 kts | 268° |
| 2026-04-27 12:49 | 52.32895 | 4.70909 | -2 ft | 13 kts | 334° |
| 2026-04-27 12:49 | 52.32917 | 4.70902 | -3 ft | 0 kts | 355° |
| 2026-04-27 12:49 | 52.32919 | 4.70902 | -3 ft | 1 kts | 355° |
| 2026-04-27 12:49 | 52.32970 | 4.70902 | -3 ft | 34 kts | 1° |
| 2026-04-27 12:50 | 52.33454 | 4.70948 | -2 ft | 101 kts | 3° |
| 2026-04-27 12:50 | 52.34324 | 4.71027 | -3 ft | 148 kts | 3° |
| 2026-04-27 12:50 | 52.35431 | 4.71135 | 357 ft | 163 kts | 4° |
| 2026-04-27 12:50 | 52.36578 | 4.71240 | 1008 ft | 165 kts | 4° |
| 2026-04-27 12:51 | 52.37752 | 4.71351 | 1583 ft | 177 kts | 4° |
| 2026-04-27 12:51 | 52.39060 | 4.71475 | 1906 ft | 201 kts | 5° |
| 2026-04-27 12:51 | 52.40548 | 4.71614 | 2305 ft | 227 kts | 4° |
| 2026-04-27 12:51 | 52.42202 | 4.71647 | 2856 ft | 248 kts | 352° |
| 2026-04-27 12:52 | 52.43827 | 4.70582 | 3673 ft | 258 kts | 324° |
| 2026-04-27 12:52 | 52.45135 | 4.68549 | 4643 ft | 261 kts | 311° |
| 2026-04-27 12:52 | 52.46118 | 4.66034 | 5530 ft | 268 kts | 296° |
| 2026-04-27 12:52 | 52.46638 | 4.63084 | 5873 ft | 271 kts | 278° |
| 2026-04-27 12:53 | 52.46544 | 4.56911 | 6294 ft | 274 kts | 259° |
| 2026-04-27 12:53 | 52.45838 | 4.53970 | 6886 ft | 280 kts | 240° |
| 2026-04-27 12:53 | 52.44612 | 4.51480 | 7830 ft | 283 kts | 223° |
| 2026-04-27 12:54 | 52.42997 | 4.49603 | 8752 ft | 286 kts | 216° |
| 2026-04-27 12:54 | 52.41550 | 4.47411 | 9691 ft | 284 kts | 233° |
| 2026-04-27 12:54 | 52.40477 | 4.44699 | 10589 ft | 284 kts | 242° |
| 2026-04-27 12:54 | 52.39581 | 4.41792 | 11285 ft | 293 kts | 245° |
| 2026-04-27 12:55 | 52.38688 | 4.38651 | 11498 ft | 316 kts | 246° |
| 2026-04-27 12:55 | 52.37720 | 4.35267 | 11667 ft | 339 kts | 245° |
| 2026-04-27 12:55 | 52.37029 | 4.32935 | 11940 ft | 347 kts | 244° |
| 2026-04-27 12:55 | 52.35932 | 4.29381 | 12569 ft | 352 kts | 243° |
| 2026-04-27 12:56 | 52.34791 | 4.25821 | 13283 ft | 355 kts | 243° |
| 2026-04-27 12:56 | 52.33623 | 4.22249 | 14017 ft | 358 kts | 243° |
| 2026-04-27 12:56 | 52.32437 | 4.18657 | 14668 ft | 360 kts | 243° |
| 2026-04-27 12:56 | 52.31167 | 4.15102 | 15289 ft | 364 kts | 236° |
| 2026-04-27 12:57 | 52.29616 | 4.11814 | 15877 ft | 367 kts | 233° |
| 2026-04-27 12:57 | 52.28032 | 4.08523 | 16474 ft | 369 kts | 233° |
| 2026-04-27 12:57 | 52.26444 | 4.05209 | 17089 ft | 371 kts | 234° |
| 2026-04-27 12:57 | 52.24852 | 4.01874 | 17697 ft | 374 kts | 234° |
| 2026-04-27 12:58 | 52.23247 | 3.98515 | 18303 ft | 377 kts | 234° |
| 2026-04-27 12:58 | 52.21629 | 3.95137 | 18860 ft | 379 kts | 234° |
| 2026-04-27 12:58 | 52.19997 | 3.91733 | 19372 ft | 383 kts | 234° |
| 2026-04-27 12:58 | 52.18348 | 3.88298 | 19892 ft | 386 kts | 234° |
| 2026-04-27 12:59 | 52.16689 | 3.84842 | 20426 ft | 389 kts | 234° |
| 2026-04-27 12:59 | 52.15016 | 3.81366 | 20960 ft | 391 kts | 234° |
| 2026-04-27 12:59 | 52.13331 | 3.77875 | 21465 ft | 393 kts | 234° |
| 2026-04-27 12:59 | 52.11635 | 3.74368 | 21956 ft | 396 kts | 234° |
| 2026-04-27 13:00 | 52.09925 | 3.70834 | 22435 ft | 398 kts | 234° |
| 2026-04-27 13:00 | 52.08206 | 3.67288 | 22908 ft | 401 kts | 234° |
| 2026-04-27 13:00 | 52.06468 | 3.63712 | 23391 ft | 403 kts | 234° |
| 2026-04-27 13:00 | 52.04724 | 3.60120 | 23853 ft | 405 kts | 234° |
| 2026-04-27 13:01 | 52.02973 | 3.56517 | 24193 ft | 407 kts | 234° |
| 2026-04-27 13:01 | 52.01212 | 3.52903 | 24268 ft | 411 kts | 234° |
| 2026-04-27 13:01 | 51.99436 | 3.49258 | 24304 ft | 421 kts | 234° |
| 2026-04-27 13:01 | 51.97649 | 3.45478 | 24298 ft | 423 kts | 236° |
| 2026-04-27 13:02 | 51.95880 | 3.41588 | 24302 ft | 422 kts | 236° |
| 2026-04-27 13:02 | 51.94160 | 3.37720 | 24296 ft | 424 kts | 237° |
| 2026-04-27 13:02 | 51.92464 | 3.33883 | 24296 ft | 425 kts | 237° |
| 2026-04-27 13:02 | 51.90736 | 3.30002 | 24310 ft | 425 kts | 236° |
| 2026-04-27 13:03 | 51.88999 | 3.26129 | 24309 ft | 425 kts | 236° |
| 2026-04-27 13:03 | 51.87271 | 3.22251 | 24309 ft | 424 kts | 239° |
| 2026-04-27 13:03 | 51.85831 | 3.18035 | 24304 ft | 422 kts | 248° |
| 2026-04-27 13:03 | 51.84873 | 3.13631 | 24305 ft | 420 kts | 257° |
| 2026-04-27 13:04 | 51.84378 | 3.08994 | 24307 ft | 419 kts | 265° |
| 2026-04-27 13:04 | 51.84086 | 3.04307 | 24307 ft | 419 kts | 265° |
| 2026-04-27 13:04 | 51.83790 | 2.99624 | 24305 ft | 419 kts | 265° |
| 2026-04-27 13:04 | 51.83489 | 2.94946 | 24306 ft | 419 kts | 265° |
| 2026-04-27 13:05 | 51.83184 | 2.90262 | 24297 ft | 419 kts | 264° |
| 2026-04-27 13:05 | 51.82873 | 2.85577 | 24293 ft | 419 kts | 264° |
| 2026-04-27 13:05 | 51.82557 | 2.80890 | 24291 ft | 420 kts | 264° |
| 2026-04-27 13:05 | 51.82239 | 2.76200 | 24290 ft | 420 kts | 264° |
| 2026-04-27 13:06 | 51.81917 | 2.71507 | 24290 ft | 420 kts | 264° |
| 2026-04-27 13:06 | 51.81589 | 2.66751 | 24291 ft | 420 kts | 264° |
| 2026-04-27 13:06 | 51.81264 | 2.62049 | 24292 ft | 421 kts | 264° |
| 2026-04-27 13:06 | 51.80940 | 2.57400 | 24293 ft | 421 kts | 264° |
| 2026-04-27 13:07 | 51.80612 | 2.52703 | 24294 ft | 421 kts | 264° |
| 2026-04-27 13:07 | 51.80283 | 2.48010 | 24296 ft | 421 kts | 264° |
| 2026-04-27 13:07 | 51.79953 | 2.43310 | 24297 ft | 421 kts | 264° |
| 2026-04-27 13:07 | 51.79622 | 2.38609 | 24288 ft | 421 kts | 264° |
| 2026-04-27 13:08 | 51.79292 | 2.33911 | 24290 ft | 421 kts | 264° |
| 2026-04-27 13:08 | 51.78956 | 2.29198 | 24291 ft | 421 kts | 264° |
| 2026-04-27 13:08 | 51.78617 | 2.24495 | 24276 ft | 422 kts | 264° |
| 2026-04-27 13:08 | 51.78283 | 2.19794 | 24281 ft | 421 kts | 264° |
| 2026-04-27 13:09 | 51.77986 | 2.15075 | 24284 ft | 421 kts | 265° |
| 2026-04-27 13:09 | 51.77716 | 2.10368 | 24286 ft | 421 kts | 265° |
| 2026-04-27 13:09 | 51.77456 | 2.05658 | 24284 ft | 421 kts | 265° |
| 2026-04-27 13:09 | 51.77196 | 2.00952 | 24292 ft | 421 kts | 265° |
| 2026-04-27 13:10 | 51.76929 | 1.96241 | 24297 ft | 421 kts | 265° |
| 2026-04-27 13:10 | 51.76652 | 1.91530 | 24284 ft | 421 kts | 265° |
| 2026-04-27 13:10 | 51.76368 | 1.86824 | 24282 ft | 422 kts | 265° |